Time;durP1;ratioP1;P1;durP2;ratioP2;P2;SDS_P1;SDS_P2;PMS_P1;PMS_P2;Temp;Humidity;BMP_temperature;BMP_pressure;BME280_temperature;BME280_humidity;BME280_pressure;Samples;Min_cycle;Max_cycle;Signal;HPM_P1;HPM_P2
2023/04/27 00:02:10;;;;;;;;;10.00;10.00;;;;;18.83;52.01;100966.56;4944430;28;45424;-82
2023/04/27 00:04:36;;;;;;;;;10.67;9.33;;;;;19.04;53.31;100961.72;4927562;28;46944;-82
2023/04/27 00:07:02;;;;;;;;;8.67;8.67;;;;;18.87;54.00;100962.91;4944713;28;45778;-83
2023/04/27 00:09:27;;;;;;;;;10.67;10.00;;;;;18.88;52.64;100964.66;4942427;28;45481;-83
2023/04/27 00:11:53;;;;;;;;;10.00;10.00;;;;;18.90;53.03;100962.84;4927715;28;45395;-83
2023/04/27 00:14:19;;;;;;;;;9.67;9.33;;;;;18.89;53.96;100961.06;4943130;28;46891;-83
2023/04/27 00:16:45;;;;;;;;;9.33;6.33;;;;;18.90;53.87;100960.16;4945789;28;45744;-83
2023/04/27 00:19:12;;;;;;;;;11.33;9.67;;;;;18.92;54.93;100961.00;4943522;28;45338;-83
2023/04/27 00:21:38;;;;;;;;;10.33;9.33;;;;;18.83;54.02;100952.22;4944508;28;45536;-82
2023/04/27 00:24:03;;;;;;;;;9.00;9.00;;;;;18.75;52.02;100952.31;4944411;28;45409;-83
2023/04/27 00:26:28;;;;;;;;;9.67;9.67;;;;;18.76;52.83;100954.06;4926476;28;45490;-82
2023/04/27 00:28:54;;;;;;;;;10.00;10.00;;;;;18.73;53.79;100948.75;4946775;28;45938;-82
2023/04/27 00:31:19;;;;;;;;;10.00;10.00;;;;;18.73;53.63;100955.00;4964758;28;45507;-82
2023/04/27 00:33:45;;;;;;;;;15.33;13.00;;;;;18.64;54.03;100944.38;4962280;28;45503;-83
2023/04/27 00:36:10;;;;;;;;;13.33;12.67;;;;;18.59;52.08;100933.69;4943422;28;46023;-83
2023/04/27 00:38:35;;;;;;;;;13.00;13.00;;;;;18.58;54.60;100939.09;4961817;28;45901;-83
2023/04/27 00:41:05;;;;;;;;;15.33;15.33;;;;;18.68;55.31;100939.84;4962311;28;45501;-83
2023/04/27 00:43:31;;;;;;;;;14.33;13.00;;;;;18.67;55.13;100930.00;4961292;28;47111;-83
2023/04/27 00:45:57;;;;;;;;;14.33;14.33;;;;;18.66;53.68;100930.88;4961764;28;45412;-84
2023/04/27 00:48:22;;;;;;;;;19.67;14.67;;;;;18.66;55.76;100930.88;4964197;28;45934;-83
2023/04/27 00:50:48;;;;;;;;;16.00;15.00;;;;;18.75;55.46;100938.81;4947555;28;45398;-83
2023/04/27 00:53:14;;;;;;;;;16.67;14.00;;;;;18.68;55.60;100940.72;4944717;28;47963;-83
2023/04/27 00:55:39;;;;;;;;;16.00;14.33;;;;;18.67;55.20;100930.00;4962906;28;45546;-84
2023/04/27 00:58:05;;;;;;;;;15.00;13.00;;;;;18.67;55.70;100925.47;4959387;28;45538;-84
2023/04/27 01:00:30;;;;;;;;;17.67;14.67;;;;;18.74;55.61;100935.25;4961378;28;45065;-83
2023/04/27 01:02:56;;;;;;;;;18.67;17.33;;;;;18.76;56.15;100935.19;4961231;28;46706;-83
2023/04/27 01:05:24;;;;;;;;;18.00;18.00;;;;;19.07;56.32;100937.44;4962012;28;44941;-83
2023/04/27 01:07:49;;;;;;;;;15.00;15.00;;;;;18.76;54.54;100936.13;4963361;28;45521;-83
2023/04/27 01:10:15;;;;;;;;;14.33;10.67;;;;;18.75;55.37;100936.13;4945678;28;45433;-83
2023/04/27 01:12:40;;;;;;;;;17.00;16.33;;;;;18.66;55.72;100922.81;4960578;28;48079;-83
2023/04/27 01:15:06;;;;;;;;;20.33;18.00;;;;;18.76;56.17;100932.50;4944890;28;45385;-83
2023/04/27 01:17:31;;;;;;;;;19.00;18.00;;;;;18.75;56.08;100926.25;4945598;28;45474;-82
2023/04/27 01:19:58;;;;;;;;;21.00;20.00;;;;;18.85;56.00;100937.78;4945792;28;45448;-82
2023/04/27 01:22:23;;;;;;;;;23.33;21.33;;;;;18.83;55.88;100949.53;4944712;28;47140;-82
2023/04/27 01:24:49;;;;;;;;;19.67;19.33;;;;;18.81;55.96;100933.38;4944581;28;45703;-82
2023/04/27 01:27:14;;;;;;;;;23.67;20.33;;;;;18.83;55.89;100936.94;4962546;28;45359;-83
2023/04/27 01:29:40;;;;;;;;;16.33;15.67;;;;;18.79;55.85;100937.91;4963527;28;45313;-83
2023/04/27 01:32:05;;;;;;;;;21.33;21.00;;;;;18.82;56.48;100947.72;4945174;28;47485;-83
2023/04/27 01:34:31;;;;;;;;;17.00;16.33;;;;;18.82;56.35;100937.81;4942092;28;45898;-83
2023/04/27 01:36:56;;;;;;;;;20.67;20.33;;;;;18.80;55.88;100939.66;4942730;28;45370;-82
2023/04/27 01:39:22;;;;;;;;;19.00;15.00;;;;;18.81;55.64;100944.16;4942539;28;45521;-82
2023/04/27 01:41:47;;;;;;;;;20.00;19.67;;;;;18.77;56.30;100929.78;4941064;28;47338;-82
2023/04/27 01:44:15;;;;;;;;;25.67;23.67;;;;;18.78;55.73;100931.59;4942720;28;45478;-83
2023/04/27 01:46:40;;;;;;;;;18.00;18.00;;;;;18.72;54.75;100925.41;4941601;28;45432;-82
2023/04/27 01:49:07;;;;;;;;;22.00;18.33;;;;;18.91;54.60;100920.63;4943458;28;45328;-84
2023/04/27 01:51:32;;;;;;;;;21.00;21.00;;;;;18.52;55.88;100913.16;4943636;28;45416;-83
2023/04/27 01:53:57;;;;;;;;;20.67;20.67;;;;;18.56;55.55;100905.91;4942726;28;45433;-82
2023/04/27 01:56:23;;;;;;;;;23.67;20.67;;;;;18.56;55.89;100905.91;4959466;28;45665;-82
2023/04/27 01:58:51;;;;;;;;;20.67;16.00;;;;;18.62;55.88;100913.00;4944342;28;45780;-83
2023/04/27 02:01:16;;;;;;;;;17.67;15.33;;;;;18.69;55.44;100920.06;4941673;28;47108;-83
2023/04/27 02:03:48;;;;;;;;;18.67;14.67;;;;;19.18;55.49;100908.44;4941686;28;45434;-82
2023/04/27 02:06:14;;;;;;;;;20.00;19.00;;;;;18.70;55.54;100916.44;4924618;28;45505;-83
2023/04/27 02:08:39;;;;;;;;;18.67;16.67;;;;;18.68;55.61;100905.69;4942574;28;45436;-83
2023/04/27 02:11:05;;;;;;;;;15.00;14.33;;;;;18.69;53.59;100903.91;4943600;28;45887;-84
2023/04/27 02:13:30;;;;;;;;;17.00;17.00;;;;;18.65;55.46;100910.25;4958068;28;45438;-83
2023/04/27 02:15:55;;;;;;;;;14.33;13.00;;;;;18.67;55.43;100911.13;4941852;28;45427;-84
2023/04/27 02:18:21;;;;;;;;;16.00;15.33;;;;;18.69;55.54;100915.56;4956795;28;45424;-83
2023/04/27 02:20:46;;;;;;;;;20.67;19.67;;;;;18.64;55.02;100905.78;4942020;28;48078;-83
2023/04/27 02:23:12;;;;;;;;;16.33;14.00;;;;;18.66;55.21;100906.63;4941493;28;45508;-82
2023/04/27 02:25:37;;;;;;;;;22.33;21.33;;;;;18.67;53.78;100911.13;4939969;28;45448;-82
2023/04/27 02:28:03;;;;;;;;;16.67;16.00;;;;;18.61;55.04;100906.72;4941068;28;45465;-82
2023/04/27 02:31:21;;;;;;;;;20.00;17.00;;;;;19.16;54.30;100912.97;4942212;28;45576;-83
2023/04/27 02:33:54;;;;;;;;;20.00;20.00;;;;;18.51;53.97;100905.97;4951145;28;45408;-83
2023/04/27 02:36:20;;;;;;;;;18.67;18.67;;;;;18.44;54.49;100915.09;4962048;28;45720;-82
2023/04/27 02:38:45;;;;;;;;;22.67;19.00;;;;;18.30;53.66;100914.38;4960057;28;45396;-82
2023/04/27 02:41:10;;;;;;;;;27.33;25.67;;;;;18.22;52.94;100910.91;4945701;28;47069;-83
2023/04/27 02:43:36;;;;;;;;;25.33;25.33;;;;;18.10;53.83;100910.19;4962481;28;45666;-83
2023/04/27 02:46:02;;;;;;;;;27.00;24.00;;;;;18.13;53.57;100914.63;4960648;28;45454;-82
2023/04/27 02:48:29;;;;;;;;;28.33;25.33;;;;;17.93;53.85;100912.22;4962976;28;45433;-83
2023/04/27 02:50:55;;;;;;;;;28.33;23.67;;;;;17.98;54.11;100923.84;4946221;28;46926;-83
2023/04/27 02:53:21;;;;;;;;;26.67;25.33;;;;;18.01;54.50;100926.47;4959914;28;45446;-83
2023/04/27 02:55:49;;;;;;;;;22.00;21.00;;;;;18.05;54.41;100932.69;4960008;28;45257;-83
2023/04/27 02:58:15;;;;;;;;;30.67;28.00;;;;;18.15;53.81;100928.97;4944823;28;45740;-83
2023/04/27 03:00:41;;;;;;;;;28.00;28.00;;;;;18.07;53.69;100937.13;4961987;28;45680;-83
2023/04/27 03:03:07;;;;;;;;;36.33;32.33;;;;;18.00;54.51;100932.78;4946438;28;45664;-83
2023/04/27 03:05:33;;;;;;;;;34.67;27.33;;;;;17.89;53.62;100919.44;4966381;28;45438;-83
2023/04/27 03:07:58;;;;;;;;;42.00;34.33;;;;;17.90;53.51;100923.03;4964240;28;45457;-82
2023/04/27 03:10:24;;;;;;;;;35.00;33.33;;;;;17.88;54.11;100927.56;4963707;28;45402;-82
2023/04/27 03:12:49;;;;;;;;;31.67;29.00;;;;;17.87;53.71;100923.06;4947972;28;45454;-82
2023/04/27 03:15:15;;;;;;;;;26.67;26.67;;;;;17.83;54.00;100929.38;4966587;28;45414;-82
2023/04/27 03:17:40;;;;;;;;;28.67;26.33;;;;;17.82;54.84;100930.28;4965690;28;45447;-82
2023/04/27 03:20:08;;;;;;;;;29.67;28.33;;;;;17.85;54.00;100924.88;4965540;28;45812;-83
2023/04/27 03:22:34;;;;;;;;;27.67;27.00;;;;;17.82;54.40;100927.59;4964547;28;45444;-83
2023/04/27 03:25:00;;;;;;;;;26.67;23.67;;;;;17.80;53.69;100933.88;4945857;28;45388;-82
2023/04/27 03:27:26;;;;;;;;;35.50;33.50;;;;;18.09;53.78;100929.06;4947159;28;45422;-83
2023/04/27 03:29:55;;;;;;;;;33.00;31.00;;;;;17.77;53.94;100933.94;4962820;28;48329;-83
2023/04/27 03:32:20;;;;;;;;;29.00;29.00;;;;;17.72;54.12;100925.00;4948916;28;45408;-83
2023/04/27 03:34:46;;;;;;;;;27.67;27.67;;;;;17.81;54.31;100934.75;4934927;28;46679;-83
2023/04/27 03:37:11;;;;;;;;;30.33;28.33;;;;;17.86;54.39;100940.13;4940612;28;45709;-83
2023/04/27 03:39:37;;;;;;;;;33.33;31.00;;;;;17.89;54.45;100932.91;4941141;28;47259;-83
2023/04/27 03:42:02;;;;;;;;;28.67;25.33;;;;;17.95;54.22;100926.53;4924354;28;45425;-83
2023/04/27 03:44:30;;;;;;;;;27.00;25.67;;;;;17.96;54.52;100928.34;4924151;28;45466;-83
2023/04/27 03:46:55;;;;;;;;;32.33;27.67;;;;;17.90;54.34;100915.84;4941695;28;45377;-83
2023/04/27 03:49:21;;;;;;;;;35.33;28.00;;;;;17.98;54.34;100924.72;4941322;28;47092;-83
2023/04/27 03:51:46;;;;;;;;;25.67;25.67;;;;;18.06;54.53;100918.34;4940407;28;45349;-83
2023/04/27 03:54:11;;;;;;;;;33.33;31.00;;;;;18.18;54.40;100929.81;4942334;28;45654;-83
2023/04/27 03:56:37;;;;;;;;;30.33;28.00;;;;;18.17;54.00;100921.75;4925533;28;45598;-83
2023/04/27 03:59:03;;;;;;;;;33.67;29.00;;;;;18.34;54.04;100925.09;4924823;28;48147;-83
2023/04/27 04:01:29;;;;;;;;;30.00;26.33;;;;;18.19;54.07;100926.19;4928773;28;45506;-83
2023/04/27 04:03:55;;;;;;;;;38.00;35.33;;;;;18.18;53.92;100923.56;4939840;28;45490;-83
2023/04/27 04:06:20;;;;;;;;;34.67;30.33;;;;;18.20;54.22;100927.13;4941102;28;45477;-83
2023/04/27 04:08:45;;;;;;;;;37.33;34.00;;;;;18.27;54.43;100926.09;4939181;28;47145;-83
2023/04/27 04:11:11;;;;;;;;;15.00;11.00;;;;;18.23;53.65;100916.28;4925015;28;45399;-83
2023/04/27 04:13:37;;;;;;;;;38.33;34.00;;;;;18.48;53.82;100919.50;4923221;28;45404;-83
2023/04/27 04:16:07;;;;;;;;;35.67;29.67;;;;;18.46;53.25;100925.81;4924401;28;45494;-83
2023/04/27 04:18:33;;;;;;;;;38.67;32.33;;;;;18.07;53.68;100923.69;4927187;28;45347;-83
2023/04/27 04:20:58;;;;;;;;;27.00;27.00;;;;;17.93;53.71;100928.38;4939800;28;45568;-83
2023/04/27 04:23:24;;;;;;;;;36.33;31.00;;;;;17.94;53.71;100931.03;4940513;28;45338;-83
2023/04/27 04:25:49;;;;;;;;;29.00;26.67;;;;;17.83;53.32;100938.34;4940906;28;45875;-83
2023/04/27 04:28:15;;;;;;;;;30.33;24.67;;;;;17.80;54.02;100938.38;4926196;28;45425;-83
2023/04/27 04:30:40;;;;;;;;;28.33;27.00;;;;;17.80;54.38;100938.38;4940370;28;45377;-83
2023/04/27 04:33:07;;;;;;;;;19.33;18.67;;;;;17.78;53.20;100927.63;4927838;28;45938;-82
2023/04/27 04:35:32;;;;;;;;;29.00;24.00;;;;;17.73;53.68;100920.50;4946653;28;46125;-82
2023/04/27 04:37:58;;;;;;;;;23.00;22.00;;;;;17.77;53.47;100923.16;4962932;28;46831;-83
2023/04/27 04:40:24;;;;;;;;;22.67;21.67;;;;;17.67;53.32;100916.09;4945732;28;45862;-83
2023/04/27 04:42:49;;;;;;;;;21.00;18.33;;;;;17.63;53.51;100914.34;4962239;28;45218;-83
2023/04/27 04:45:15;;;;;;;;;22.00;19.67;;;;;17.54;54.01;100901.03;4965831;28;45391;-83
2023/04/27 04:47:40;;;;;;;;;22.33;21.33;;;;;17.52;53.84;100901.06;4962914;28;47380;-83
2023/04/27 04:50:08;;;;;;;;;21.67;20.67;;;;;17.53;54.03;100900.16;4962381;28;45667;-82
2023/04/27 04:52:33;;;;;;;;;20.33;18.00;;;;;17.45;54.26;100911.88;4946059;28;45393;-82
2023/04/27 04:54:58;;;;;;;;;19.33;18.00;;;;;17.40;54.38;100895.81;4962097;28;45587;-82
2023/04/27 04:57:24;;;;;;;;;17.00;17.00;;;;;17.47;54.02;100907.38;4961870;28;46997;-83
2023/04/27 04:59:51;;;;;;;;;16.00;16.00;;;;;17.75;54.57;100919.63;4959900;28;45345;-83
2023/04/27 05:02:16;;;;;;;;;16.33;16.33;;;;;17.48;54.14;100917.25;4946199;28;45405;-83
2023/04/27 05:04:41;;;;;;;;;17.00;14.67;;;;;17.51;54.31;100919.88;4963499;28;44858;-83
2023/04/27 05:07:07;;;;;;;;;20.00;19.00;;;;;17.53;54.74;100918.97;4963523;28;46075;-83
2023/04/27 05:09:32;;;;;;;;;20.00;19.00;;;;;17.61;53.84;100918.88;4963866;28;45798;-83
2023/04/27 05:12:00;;;;;;;;;16.67;16.33;;;;;17.96;53.69;100923.84;4963399;28;45480;-83
2023/04/27 05:14:26;;;;;;;;;18.00;17.00;;;;;17.61;53.15;100924.25;4946697;28;45990;-83
2023/04/27 05:16:51;;;;;;;;;20.67;20.00;;;;;17.68;53.59;100930.47;4962681;28;47298;-83
2023/04/27 05:19:17;;;;;;;;;19.00;17.67;;;;;17.68;53.92;100923.28;4946370;28;45686;-83
2023/04/27 05:21:44;;;;;;;;;14.67;14.67;;;;;17.89;54.39;100932.00;4960765;28;45394;-83
2023/04/27 05:24:10;;;;;;;;;16.00;15.00;;;;;17.77;53.01;100928.56;4945055;28;45416;-83
2023/04/27 05:26:35;;;;;;;;;17.33;15.67;;;;;17.76;52.70;100925.88;4961382;28;47744;-82
2023/04/27 05:29:00;;;;;;;;;17.00;16.33;;;;;17.79;53.47;100923.13;4962608;28;45447;-82
2023/04/27 05:31:26;;;;;;;;;16.33;16.33;;;;;17.78;53.62;100924.06;4962306;28;45780;-82
2023/04/27 05:33:52;;;;;;;;;19.00;19.00;;;;;17.77;53.33;100917.78;4959221;28;45570;-82
2023/04/27 05:36:17;;;;;;;;;20.00;17.67;;;;;17.79;53.06;100910.59;4941991;28;48122;-82
2023/04/27 05:38:43;;;;;;;;;19.00;19.00;;;;;17.79;53.62;100907.91;4957553;28;45805;-82
2023/04/27 05:41:08;;;;;;;;;18.33;17.67;;;;;17.76;53.59;100916.00;4944340;28;45375;-83
2023/04/27 05:43:37;;;;;;;;;19.00;17.00;;;;;17.98;53.22;100910.38;4945712;28;45388;-83
2023/04/27 05:46:03;;;;;;;;;23.00;19.33;;;;;17.68;53.09;100907.13;4939056;28;46158;-84
2023/04/27 05:48:29;;;;;;;;;16.00;14.33;;;;;17.71;53.54;100909.78;4950703;28;45486;-83
2023/04/27 05:51:02;;;;;;;;;15.67;15.00;;;;;18.16;53.25;100898.47;4930289;28;45398;-82
2023/04/27 05:53:29;;;;;;;;;23.00;19.00;;;;;17.99;53.35;100913.03;4933141;28;45379;-83
2023/04/27 05:55:55;;;;;;;;;17.33;17.33;;;;;18.13;53.12;100904.75;4930427;28;46930;-84
2023/04/27 05:58:21;;;;;;;;;13.00;12.33;;;;;18.13;52.97;100910.13;4936003;28;45767;-83
2023/04/27 06:00:46;;;;;;;;;20.33;19.33;;;;;18.19;52.78;100901.09;4935319;28;45266;-83
2023/04/27 06:03:12;;;;;;;;;26.00;19.33;;;;;18.31;52.69;100897.31;4954263;28;45435;-83
2023/04/27 06:05:38;;;;;;;;;24.33;23.00;;;;;18.56;52.11;100912.19;4953618;28;46608;-83
2023/04/27 06:08:04;;;;;;;;;20.33;20.33;;;;;18.63;51.73;100910.28;4936616;28;45520;-84
2023/04/27 06:10:29;;;;;;;;;19.00;19.00;;;;;18.76;51.96;100919.94;4933585;28;44717;-83
2023/04/27 06:12:55;;;;;;;;;23.67;22.00;;;;;18.88;51.61;100932.34;4924897;28;45783;-84
2023/04/27 06:15:20;;;;;;;;;22.67;21.33;;;;;18.96;52.51;100907.94;4924112;28;46912;-83
2023/04/27 06:17:46;;;;;;;;;25.33;20.33;;;;;19.04;51.29;100906.00;4925093;28;45341;-84
2023/04/27 06:20:12;;;;;;;;;23.00;23.00;;;;;19.02;51.47;100902.44;4924936;28;45601;-84
2023/04/27 06:22:37;;;;;;;;;20.00;20.00;;;;;19.16;50.10;100910.28;4940251;28;45667;-82
2023/04/27 06:25:04;;;;;;;;;27.67;24.00;;;;;19.30;50.76;100908.22;4923660;28;44917;-84
2023/04/27 06:27:30;;;;;;;;;23.33;23.33;;;;;19.30;50.77;100912.72;4941191;28;45552;-84
2023/04/27 06:29:55;;;;;;;;;19.67;19.00;;;;;19.37;49.77;100907.19;4928781;28;45373;-84
2023/04/27 06:32:20;;;;;;;;;20.67;18.67;;;;;19.56;48.45;100912.22;4946548;28;44946;-84
2023/04/27 06:34:46;;;;;;;;;20.00;18.00;;;;;19.66;48.71;100915.59;4939368;28;45508;-83
2023/04/27 06:37:24;;;;;;;;;16.67;16.00;;;;;20.04;50.17;100912.13;4946406;28;45550;-84
2023/04/27 06:39:58;;;;;;;;;17.00;15.33;;;;;19.69;48.92;100911.03;4930301;28;45286;-84
2023/04/27 06:42:28;;;;;;;;;15.00;15.00;;;;;19.96;49.24;100903.31;4946415;28;45421;-83
2023/04/27 06:51:41;;;;;;;;;17.67;17.00;;;;;20.02;45.01;100922.06;4966053;28;45427;-84
2023/04/27 06:54:14;;;;;;;;;13.33;12.00;;;;;19.98;46.54;100912.25;4964472;28;45073;-83
2023/04/27 06:56:40;;;;;;;;;14.33;12.67;;;;;19.71;45.85;100920.03;4948882;28;47343;-83
2023/04/27 06:59:10;;;;;;;;;13.67;13.33;;;;;19.83;44.14;100890.97;4967509;28;44724;-83
2023/04/27 07:01:39;;;;;;;;;14.33;13.67;;;;;19.86;44.33;100910.72;4961933;28;45393;-84
2023/04/27 07:04:09;;;;;;;;;13.67;12.33;;;;;19.83;45.61;100882.88;4961820;28;45594;-84
2023/04/27 07:06:37;;;;;;;;;15.67;13.33;;;;;19.83;44.69;100881.06;4946446;28;46908;-84
2023/04/27 07:09:15;;;;;;;;;11.67;11.67;;;;;20.43;45.81;100904.00;4965521;28;45445;-82
2023/04/27 07:11:40;;;;;;;;;8.33;7.33;;;;;19.96;44.08;100881.72;4950412;28;44812;-82
2023/04/27 07:14:26;;;;;;;;;16.33;12.00;;;;;20.05;43.44;100880.59;4967313;28;45684;-83
2023/04/27 07:16:52;;;;;;;;;11.00;11.00;;;;;20.08;42.98;100861.66;4968822;28;45414;-84
2023/04/27 07:19:20;;;;;;;;;11.00;11.00;;;;;20.56;41.89;100883.88;4948841;28;45346;-84
2023/04/27 07:21:49;;;;;;;;;12.67;11.67;;;;;20.21;41.22;100857.72;4949331;28;45393;-84
2023/04/27 07:24:14;;;;;;;;;13.00;12.00;;;;;20.29;41.35;100871.91;4967796;28;45228;-82
2023/04/27 07:26:40;;;;;;;;;9.00;9.00;;;;;20.43;42.96;100893.19;4963202;28;46975;-84
2023/04/27 07:29:27;;;;;;;;;11.00;11.00;;;;;20.80;43.32;100872.50;4964976;28;44946;-84
2023/04/27 07:32:20;;;;;;;;;11.33;10.67;;;;;20.94;42.94;100892.81;4948510;28;45432;-83
2023/04/27 07:34:47;;;;;;;;;15.00;12.33;;;;;20.85;43.47;100917.41;4965254;28;45381;-83
2023/04/27 07:37:23;;;;;;;;;10.67;10.00;;;;;21.25;40.78;100883.00;4938407;28;45664;-83
2023/04/27 07:40:09;;;;;;;;;11.00;8.00;;;;;21.43;40.66;100881.63;4939578;28;45440;-85
2023/04/27 07:42:40;;;;;;;;;12.00;12.00;;;;;21.45;40.52;100887.88;4947927;28;45376;-84
2023/04/27 07:45:18;;;;;;;;;11.00;11.00;;;;;21.54;40.75;100906.56;4954444;28;45405;-84
2023/04/27 07:51:14;;;;;;;;;13.33;13.33;;;;;21.78;39.87;100884.19;4976785;28;44922;-83
2023/04/27 07:53:54;;;;;;;;;10.33;8.33;;;;;21.68;39.87;100895.34;4953016;28;45444;-83
2023/04/27 07:56:48;;;;;;;;;10.67;9.33;;;;;21.49;38.92;100886.84;4950172;28;45418;-83
2023/04/27 07:59:59;;;;;;;;;14.00;12.00;;;;;21.25;41.05;100867.66;4963048;28;46317;-83
2023/04/27 08:47:38;;;;;;;;;;;;;;;;;;;;;
2023/04/27 08:50:56;;;;;;;;;;;;;;;;;;;;;
2023/04/27 08:53:32;;;;;;;;;12.00;11.33;;;;;21.88;39.73;100863.13;4882601;29;72420;-84
2023/04/27 09:00:05;;;;;;;;;;;;;;;;;;;;;
2023/04/27 09:03:06;;;;;;;;;15.33;12.00;;;;;21.96;39.61;100871.91;4868574;29;45419;-84
2023/04/27 09:09:07;;;;;;;;;11.00;11.00;;;;;21.34;40.17;100823.22;4809253;29;45564;-83
2023/04/27 09:11:49;;;;;;;;;10.67;9.00;;;;;21.86;38.84;100870.41;4807916;29;45541;-84
2023/04/27 09:14:54;;;;;;;;;8.33;8.33;;;;;21.85;39.92;100863.22;4797213;29;47309;-82
2023/04/27 09:17:58;;;;;;;;;12.67;12.67;;;;;22.24;39.59;100879.19;4802239;29;45434;-83
2023/04/27 09:27:20;;;;;;;;;7.00;7.00;;;;;22.64;38.75;100874.28;4726138;30;46337;-83
2023/04/27 09:33:55;;;;;;;;;10.33;10.00;;;;;22.67;38.58;100879.59;4732861;30;45486;-84
2023/04/27 09:37:14;;;;;;;;;;;;;;;;;;;;;
2023/04/27 09:43:44;;;;;;;;;5.33;5.33;;;;;22.87;40.20;100855.41;4734318;30;45557;-84
2023/04/27 09:46:49;;;;;;;;;7.67;7.67;;;;;23.01;39.27;100840.47;4781435;29;45777;-84
2023/04/27 09:52:39;;;;;;;;;10.67;10.00;;;;;22.82;39.85;100870.94;4796841;29;45606;-84
2023/04/27 10:02:21;;;;;;;;;9.33;7.33;;;;;23.28;39.31;100882.88;4830153;29;45591;-84
2023/04/27 10:08:21;;;;;;;;;9.67;9.67;;;;;22.74;39.36;100835.97;4829943;29;45947;-84
2023/04/27 10:14:10;;;;;;;;;11.33;9.33;;;;;22.73;41.38;100822.47;4856828;29;45655;-84
2023/04/27 10:25:36;;;;;;;;;9.00;9.00;;;;;23.11;40.24;100848.25;5195241;23;45840;-83
2023/04/27 10:28:17;;;;;;;;;8.33;8.33;;;;;23.13;41.85;100831.91;4843442;29;45435;-83
2023/04/27 10:31:11;;;;;;;;;8.00;8.00;;;;;23.08;40.77;100785.06;4835460;29;45476;-83
2023/04/27 10:33:44;;;;;;;;;10.00;10.00;;;;;23.44;40.46;100833.47;4851880;29;44905;-82
2023/04/27 10:40:53;;;;;;;;;8.33;7.00;;;;;23.76;40.78;100841.25;4813501;29;45701;-85
2023/04/27 10:43:35;;;;;;;;;7.00;7.00;;;;;23.56;40.59;100805.84;4810674;29;44828;-84
2023/04/27 10:46:58;;;;;;;;;8.33;7.33;;;;;24.03;41.66;100832.09;4822605;29;45386;-84
2023/04/27 11:07:42;;;;;;;;;6.67;4.67;;;;;25.16;40.46;100821.81;4761584;29;45715;-84
2023/04/27 11:13:51;;;;;;;;;5.00;5.00;;;;;25.30;39.62;100802.16;4749320;29;44909;-84
2023/04/27 11:20:31;;;;;;;;;4.67;4.00;;;;;25.82;36.57;100787.03;4819485;29;45444;-84
2023/04/27 11:22:59;;;;;;;;;7.33;6.67;;;;;25.40;38.67;100752.75;4814382;29;45551;-85
2023/04/27 11:26:38;;;;;;;;;6.00;6.00;;;;;26.26;38.97;100781.25;4815663;29;45621;-83
2023/04/27 11:30:08;;;;;;;;;4.67;4.33;;;;;26.32;37.24;100780.94;4786592;29;44988;-84
2023/04/27 11:36:25;;;;;;;;;5.67;5.67;;;;;26.92;37.52;100753.28;4729813;30;45478;-84
2023/04/27 11:39:41;;;;;;;;;;;;;;;;;;;;;
2023/04/27 11:42:42;;;;;;;;;;;;;;;;;;;;;
2023/04/27 11:45:20;;;;;;;;;3.67;3.67;;;;;26.05;35.25;100735.03;4681451;30;75800;-85
2023/04/27 11:48:08;;;;;;;;;5.33;4.33;;;;;25.88;36.58;100737.69;4681942;30;44938;-84
2023/04/27 14:45:17;;;;;;;;;5.33;4.33;;;;;25.91;40.82;100625.84;4791252;29;45648;-84
2023/04/27 14:55:00;;;;;;;;;;;;;;;;;;;;;
2023/04/27 14:58:05;;;;;;;;;1.50;1.50;;;;;25.93;39.99;100569.44;4757146;29;67530;-83
2023/04/27 15:18:27;;;;;;;;;3.33;3.33;;;;;26.29;38.86;100590.25;4691515;30;45501;-84
2023/04/27 15:21:11;;;;;;;;;3.33;3.33;;;;;26.28;38.64;100569.41;4690073;30;45519;-83
2023/04/27 15:23:36;;;;;;;;;4.25;3.25;;;;;25.76;38.36;100548.50;4676598;30;45467;-83
2023/04/27 15:26:07;;;;;;;;;2.67;2.67;;;;;26.11;39.49;100553.94;4670259;30;45709;-83
2023/04/27 15:28:48;;;;;;;;;;;;;;;;;;;;;
2023/04/27 15:31:40;;;;;;;;;6.00;4.00;;;;;26.09;39.29;100534.94;4673409;30;72105;-84
2023/04/27 15:34:43;;;;;;;;;4.00;4.00;;;;;26.35;39.86;100568.09;4675150;30;45388;-83
2023/04/27 15:37:09;;;;;;;;;4.67;4.67;;;;;25.83;41.20;100560.81;4709879;29;45586;-84
2023/04/27 15:39:34;;;;;;;;;5.00;3.33;;;;;25.79;41.23;100529.25;4762039;29;47048;-84
2023/04/27 15:42:00;;;;;;;;;4.67;4.00;;;;;25.98;41.33;100545.56;4761277;29;45521;-84
2023/04/27 15:45:04;;;;;;;;;3.33;3.33;;;;;26.37;41.00;100519.81;4762755;29;44852;-84
2023/04/27 15:47:37;;;;;;;;;4.00;4.00;;;;;26.04;41.61;100547.94;4757384;29;46651;-84
2023/04/27 15:50:03;;;;;;;;;4.33;4.00;;;;;26.09;41.94;100551.28;4769222;29;47797;-84
2023/04/27 15:52:35;;;;;;;;;5.25;4.50;;;;;26.25;40.70;100509.59;4823478;29;45646;-84
2023/04/27 15:55:33;;;;;;;;;;;;;;;;;;;;;
2023/04/27 15:58:48;;;;;;;;;3.67;3.67;;;;;26.30;40.61;100545.66;4835287;29;64849;-84
2023/04/27 16:02:35;;;;;;;;;8.00;5.67;;;;;25.81;41.05;100512.81;4834923;29;46147;-84
2023/04/27 16:05:45;;;;;;;;;6.25;6.25;;;;;25.87;41.06;100550.66;4744655;30;44981;-84
2023/04/27 16:08:10;;;;;;;;;7.00;6.67;;;;;25.19;42.56;100526.88;4658563;30;45349;-84
2023/04/27 16:10:36;;;;;;;;;6.67;6.67;;;;;25.18;42.18;100546.88;4667725;30;45675;-84
2023/04/27 16:13:12;;;;;;;;;6.00;6.00;;;;;25.54;42.24;100551.44;4669924;30;45442;-84
2023/04/27 16:15:37;;;;;;;;;5.00;3.33;;;;;24.81;42.97;100494.28;4668802;30;45408;-84
2023/04/27 16:18:13;;;;;;;;;6.67;5.67;;;;;25.43;42.99;100537.47;4671240;30;45679;-84
2023/04/27 16:20:41;;;;;;;;;7.67;6.00;;;;;24.85;43.29;100501.34;4673880;30;45434;-84
2023/04/27 16:23:07;;;;;;;;;10.00;6.00;;;;;24.85;43.46;100501.34;4686179;30;47277;-84
2023/04/27 16:25:35;;;;;;;;;10.00;7.67;;;;;25.27;43.74;100508.34;4687897;30;45511;-84
2023/04/27 16:28:01;;;;;;;;;6.00;6.00;;;;;24.74;43.54;100474.66;4687823;30;45390;-84
2023/04/27 16:30:28;;;;;;;;;8.00;8.00;;;;;25.11;44.00;100491.00;4672457;30;46069;-84
2023/04/27 16:33:18;;;;;;;;;6.00;6.00;;;;;25.36;44.13;100487.94;4654055;30;46181;-84
2023/04/27 16:35:47;;;;;;;;;5.00;5.00;;;;;24.93;44.43;100471.91;4694949;30;45394;-84
2023/04/27 16:38:15;;;;;;;;;6.33;6.33;;;;;25.01;44.26;100489.69;4724048;29;45406;-84
2023/04/27 16:40:51;;;;;;;;;5.00;4.67;;;;;25.05;44.83;100477.69;4831964;29;45920;-84
2023/04/27 16:43:34;;;;;;;;;11.00;7.00;;;;;24.78;44.68;100488.97;4817482;29;45857;-83
2023/04/27 16:46:35;;;;;;;;;6.33;5.00;;;;;25.32;44.80;100525.31;4830029;29;45496;-84
2023/04/27 16:49:02;;;;;;;;;6.00;6.00;;;;;24.79;45.97;100528.84;4828149;29;46019;-84
2023/04/27 16:51:30;;;;;;;;;8.67;8.67;;;;;24.49;45.61;100502.13;4828639;29;45433;-83
2023/04/27 16:53:59;;;;;;;;;7.00;7.00;;;;;24.83;46.33;100489.66;4813727;29;45528;-83
2023/04/27 16:56:30;;;;;;;;;8.00;7.00;;;;;25.13;46.58;100535.34;4797975;29;45469;-83
2023/04/27 16:59:17;;;;;;;;;8.33;8.33;;;;;25.04;46.59;100511.28;4829128;29;45626;-83
2023/04/27 17:01:45;;;;;;;;;9.00;9.00;;;;;25.05;46.96;100532.13;4830234;29;45714;-83
2023/04/27 17:04:11;;;;;;;;;8.00;8.00;;;;;24.59;47.59;100509.88;4816083;29;45438;-83
2023/04/27 17:06:36;;;;;;;;;8.33;8.33;;;;;24.67;47.49;100513.09;4812512;29;45457;-83
2023/04/27 17:09:02;;;;;;;;;8.33;8.33;;;;;24.63;48.21;100514.22;4812944;29;44919;-83
2023/04/27 17:11:54;;;;;;;;;8.00;7.00;;;;;25.11;48.14;100518.22;4812981;29;45329;-82
2023/04/27 17:15:12;;;;;;;;;8.00;6.67;;;;;25.10;48.07;100539.06;4796933;29;47295;-84
2023/04/27 17:17:34;;;;;;;;;6.33;6.33;;;;;24.89;48.83;100507.50;4814724;29;45367;-83
2023/04/27 17:20:00;;;;;;;;;7.00;7.00;;;;;24.49;49.27;100515.72;4827666;29;45377;-84
2023/04/27 17:22:27;;;;;;;;;11.00;9.00;;;;;24.25;50.01;100500.56;4834519;29;45591;-83
2023/04/27 17:24:56;;;;;;;;;9.33;7.33;;;;;24.24;50.50;100507.84;4830909;29;47325;-83
2023/04/27 17:27:21;;;;;;;;;12.67;11.00;;;;;24.21;51.35;100507.97;4848009;29;45516;-83